createdAt,value
2022-08-02T00:00:03.326Z,99.90
2022-08-02T00:05:11.555Z,99.90
2022-08-02T00:10:14.919Z,99.90
2022-08-02T00:15:18.242Z,99.90
2022-08-02T00:20:22.954Z,99.90
2022-08-02T00:25:26.269Z,99.90
2022-08-02T00:30:29.556Z,99.90
2022-08-02T00:35:34.348Z,99.90
2022-08-02T00:40:48.644Z,99.90
2022-08-02T00:46:03.207Z,99.90
2022-08-02T00:51:08.778Z,99.90
2022-08-02T00:56:12.139Z,99.90
2022-08-02T01:01:17.096Z,99.90
2022-08-02T01:06:21.821Z,99.90
2022-08-02T01:11:25.154Z,99.90
2022-08-02T01:16:32.223Z,99.90
2022-08-02T01:21:40.614Z,99.90
2022-08-02T01:26:45.122Z,99.90
2022-08-02T01:31:51.318Z,99.90
2022-08-02T01:36:59.805Z,99.90
2022-08-02T01:42:04.341Z,99.90
2022-08-02T01:47:10.445Z,99.90
2022-08-02T01:52:23.360Z,99.90
2022-08-02T01:57:28.528Z,99.90
2022-08-02T02:02:35.454Z,99.90
2022-08-02T02:07:40.462Z,99.90
2022-08-02T02:12:45.428Z,99.90
2022-08-02T02:18:12.971Z,99.90
2022-08-02T02:23:17.437Z,99.90
2022-08-02T02:28:30.487Z,99.90
2022-08-02T02:33:38.319Z,99.90
2022-08-02T02:38:42.410Z,99.90
2022-08-02T02:43:47.433Z,99.90
2022-08-02T02:48:54.041Z,99.90
2022-08-02T02:54:30.605Z,99.90
2022-08-02T02:59:22.514Z,99.90
2022-08-02T03:04:56.507Z,99.90
2022-08-02T03:09:54.199Z,99.90
2022-08-02T03:14:59.830Z,99.90
2022-08-02T03:20:08.509Z,99.90
2022-08-02T03:25:13.026Z,99.90
2022-08-02T03:30:17.362Z,99.90
2022-08-02T03:35:24.481Z,99.90
2022-08-02T03:40:29.628Z,99.90
2022-08-02T03:45:34.086Z,99.90
2022-08-02T03:50:40.630Z,99.90
2022-08-02T03:55:44.231Z,99.90
2022-08-02T04:00:48.249Z,99.90
2022-08-02T04:06:00.911Z,99.90
2022-08-02T04:11:25.343Z,99.90
2022-08-02T04:16:40.973Z,99.90
2022-08-02T04:21:52.094Z,99.90
2022-08-02T04:27:06.384Z,99.90
2022-08-02T04:32:11.507Z,99.90
2022-08-02T04:37:16.626Z,99.90
2022-08-02T04:42:24.320Z,99.90
2022-08-02T04:48:01.962Z,99.90
2022-08-02T04:52:52.437Z,99.90
2022-08-02T04:57:58.851Z,99.90
2022-08-02T05:03:02.829Z,99.90
2022-08-02T05:08:07.642Z,99.90
2022-08-02T05:13:10.963Z,99.90
2022-08-02T05:18:14.244Z,99.90
2022-08-02T05:23:19.166Z,99.90
2022-08-02T05:28:22.479Z,99.90
2022-08-02T05:33:25.871Z,99.90
2022-08-02T05:38:32.272Z,99.90
2022-08-02T05:43:40.577Z,99.90
2022-08-02T05:48:45.079Z,99.90
2022-08-02T05:53:53.229Z,99.90
2022-08-02T05:59:02.546Z,99.90
2022-08-02T06:04:08.329Z,99.90
2022-08-02T06:09:21.059Z,99.90
2022-08-02T06:14:32.168Z,99.90
2022-08-02T06:19:51.793Z,99.90
2022-08-02T06:24:57.786Z,99.90
2022-08-02T06:30:01.411Z,99.90
2022-08-02T06:35:06.465Z,99.90
2022-08-02T06:40:20.047Z,99.90
2022-08-02T06:45:23.403Z,99.90
2022-08-02T06:50:26.861Z,99.90
2022-08-02T06:55:32.345Z,99.90
2022-08-02T07:00:47.329Z,99.90
2022-08-02T07:05:50.801Z,99.90
2022-08-02T07:10:58.353Z,99.90
2022-08-02T07:16:01.707Z,99.90
2022-08-02T07:21:06.300Z,99.90
2022-08-02T07:26:14.085Z,99.90
2022-08-02T07:31:17.389Z,99.90
2022-08-02T07:36:22.850Z,99.90
2022-08-02T07:41:27.795Z,99.90
2022-08-02T07:46:33.322Z,99.90
2022-08-02T07:51:36.789Z,99.90
2022-08-02T07:56:41.537Z,96.20
2022-08-02T08:01:45.012Z,99.90
2022-08-02T08:06:52.179Z,99.90
2022-08-02T08:11:56.822Z,96.30
2022-08-02T08:17:01.199Z,85.20
2022-08-02T08:22:05.377Z,82.30
2022-08-02T08:27:14.958Z,86.80
2022-08-02T08:32:18.794Z,86.20
2022-08-02T08:37:22.262Z,79.00
2022-08-02T08:42:27.419Z,75.70
2022-08-02T08:47:35.850Z,73.30
2022-08-02T08:52:44.122Z,75.10
2022-08-02T08:57:48.940Z,82.60
2022-08-02T09:02:52.406Z,84.60
2022-08-02T09:07:55.776Z,80.80
2022-08-02T09:13:37.651Z,83.80
2022-08-02T09:18:32.820Z,76.60
2022-08-02T09:23:38.011Z,74.80
2022-08-02T09:28:44.888Z,78.60
2022-08-02T09:33:53.530Z,76.30
2022-08-02T09:38:58.977Z,74.40
2022-08-02T09:44:06.935Z,63.80
2022-08-02T09:49:13.258Z,57.20
2022-08-02T09:54:19.418Z,53.50
2022-08-02T09:59:25.768Z,57.70
2022-08-02T10:04:31.054Z,54.50
2022-08-02T10:09:38.999Z,63.20
2022-08-02T10:14:46.986Z,67.70
2022-08-02T10:20:01.921Z,65.50
2022-08-02T10:25:09.189Z,60.60
2022-08-02T10:30:14.796Z,55.20
2022-08-02T10:35:25.602Z,54.70
2022-08-02T10:40:48.532Z,53.10
2022-08-02T10:45:53.883Z,51.20
2022-08-02T10:50:57.568Z,49.10
2022-08-02T10:56:03.327Z,55.40
2022-08-02T11:01:38.983Z,49.50
2022-08-02T11:07:11.783Z,53.00
2022-08-02T11:12:16.915Z,52.60
2022-08-02T11:17:21.654Z,43.40
2022-08-02T11:22:25.930Z,49.00
2022-08-02T11:27:31.392Z,46.80
2022-08-02T11:32:36.259Z,41.30
2022-08-02T11:37:42.676Z,40.50
2022-08-02T11:42:47.974Z,43.00
2022-08-02T11:47:54.483Z,37.00
2022-08-02T11:52:57.825Z,38.80
2022-08-02T11:58:04.186Z,44.20
2022-08-02T12:03:09.996Z,47.90
2022-08-02T12:08:13.579Z,45.70
2022-08-02T12:13:16.888Z,44.00
2022-08-02T12:18:41.490Z,42.50
2022-08-02T12:24:00.687Z,40.10
2022-08-02T12:29:04.639Z,37.20
2022-08-02T12:34:17.497Z,36.70
2022-08-02T12:39:20.917Z,37.00
2022-08-02T12:44:24.332Z,41.20
2022-08-02T12:49:30.190Z,42.00
2022-08-02T12:54:42.048Z,38.90
2022-08-02T12:59:51.676Z,36.70
2022-08-02T13:05:00.790Z,35.00
2022-08-02T13:10:04.363Z,36.00
2022-08-02T13:15:12.473Z,34.60
2022-08-02T13:20:33.764Z,31.20
2022-08-02T13:25:37.943Z,31.50
2022-08-02T13:30:41.289Z,29.70
2022-08-02T13:35:46.785Z,28.20
2022-08-02T13:41:07.604Z,30.20
2022-08-02T13:46:10.936Z,34.00
2022-08-02T13:51:15.682Z,36.90
2022-08-02T13:56:19.217Z,38.10
2022-08-02T14:01:22.749Z,37.20
2022-08-02T14:06:27.685Z,39.00
2022-08-02T14:11:31.605Z,36.60
2022-08-02T14:16:35.179Z,37.00
2022-08-02T14:21:46.028Z,34.20
2022-08-02T14:26:51.639Z,35.50
2022-08-02T14:31:54.983Z,39.40
2022-08-02T14:37:03.006Z,36.80
2022-08-02T14:42:07.976Z,38.60
2022-08-02T14:47:11.331Z,42.50
2022-08-02T14:52:16.368Z,45.30
2022-08-02T14:57:19.986Z,45.90
2022-08-02T15:02:23.869Z,45.80
2022-08-02T15:07:29.081Z,46.40
2022-08-02T15:12:32.641Z,43.00
2022-08-02T15:17:36.374Z,38.60
2022-08-02T15:22:41.156Z,40.00
2022-08-02T15:27:45.977Z,41.30
2022-08-02T15:32:52.978Z,40.40
2022-08-02T15:37:58.353Z,40.60
2022-08-02T15:43:01.929Z,40.50
2022-08-02T15:48:05.995Z,41.60
2022-08-02T15:53:11.001Z,39.20
2022-08-02T15:58:17.008Z,41.00
2022-08-02T16:03:21.708Z,43.60
2022-08-02T16:08:26.710Z,43.20
2022-08-02T16:13:52.704Z,45.10
2022-08-02T16:18:57.814Z,44.70
2022-08-02T16:24:03.445Z,45.50
2022-08-02T16:29:06.926Z,43.90
2022-08-02T16:34:10.431Z,43.50
2022-08-02T16:39:15.142Z,44.30
2022-08-02T16:44:18.538Z,43.50
2022-08-02T16:50:07.152Z,44.60
2022-08-02T16:54:57.543Z,45.70
2022-08-02T17:00:01.057Z,44.70
2022-08-02T17:05:04.618Z,45.80
2022-08-02T17:10:10.529Z,46.20
2022-08-02T17:16:01.257Z,46.70
2022-08-02T17:20:37.828Z,46.90
2022-08-02T17:25:44.274Z,47.00
2022-08-02T17:30:55.901Z,47.30
2022-08-02T17:35:59.883Z,47.60
2022-08-02T17:41:04.634Z,48.10
2022-08-02T17:46:08.051Z,48.20
2022-08-02T17:51:11.366Z,48.60
2022-08-02T17:56:17.054Z,48.80
2022-08-02T18:01:23.966Z,49.10
2022-08-02T18:06:27.893Z,49.80
2022-08-02T18:11:52.576Z,50.40
2022-08-02T18:16:56.450Z,49.80
2022-08-02T18:22:02.470Z,50.80
2022-08-02T18:27:07.389Z,51.00
2022-08-02T18:32:11.900Z,51.80
2022-08-02T18:37:15.649Z,52.40
2022-08-02T18:42:22.473Z,52.90
2022-08-02T18:47:25.785Z,53.00
2022-08-02T18:52:38.012Z,53.20
2022-08-02T18:58:16.975Z,53.20
2022-08-02T19:03:08.489Z,53.80
2022-08-02T19:08:13.094Z,54.20
2022-08-02T19:13:18.477Z,54.50
2022-08-02T19:18:27.051Z,56.00
2022-08-02T19:23:34.210Z,55.50
2022-08-02T19:28:39.437Z,55.70
2022-08-02T19:34:06.668Z,58.20
2022-08-02T19:39:07.619Z,58.50
2022-08-02T19:44:23.453Z,59.00
2022-08-02T19:49:39.766Z,59.50
2022-08-02T20:00:11.344Z,59.80
2022-08-02T20:05:23.974Z,60.60
2022-08-02T20:10:27.733Z,59.90
2022-08-02T20:15:56.019Z,60.90
2022-08-02T20:20:56.096Z,61.60
2022-08-02T20:26:00.097Z,62.70
2022-08-02T20:31:09.433Z,63.30
2022-08-02T20:36:12.839Z,62.80
2022-08-02T20:41:21.719Z,62.70
2022-08-02T20:46:26.738Z,62.30
2022-08-02T20:51:33.507Z,62.20
2022-08-02T20:56:37.742Z,62.20
2022-08-02T21:01:57.286Z,62.10
2022-08-02T21:07:01.060Z,62.30
2022-08-02T21:12:12.532Z,62.80
2022-08-02T21:17:18.203Z,63.40
2022-08-02T21:22:40.951Z,64.00
2022-08-02T21:27:52.840Z,64.40
2022-08-02T21:32:58.430Z,63.10
2022-08-02T21:38:03.576Z,65.40
2022-08-02T21:43:08.950Z,65.90
2022-08-02T21:48:13.735Z,67.20
2022-08-02T21:53:18.908Z,68.30
2022-08-02T21:58:40.323Z,69.10
2022-08-02T22:03:55.783Z,68.90
2022-08-02T22:08:59.326Z,69.40
2022-08-02T22:14:03.068Z,70.10
2022-08-02T22:19:07.878Z,70.50
2022-08-02T22:24:12.830Z,71.40
2022-08-02T22:29:22.657Z,72.10
2022-08-02T22:34:51.323Z,72.90
2022-08-02T22:40:08.375Z,73.60
2022-08-02T22:45:12.914Z,74.90
2022-08-02T22:50:17.700Z,75.70
2022-08-02T22:55:23.052Z,77.00
2022-08-02T22:59:07.885Z,59.10
2022-08-02T23:00:27.394Z,78.10
2022-08-02T23:05:32.572Z,80.50
2022-08-02T23:10:35.892Z,82.50
2022-08-02T23:16:00.113Z,86.20
2022-08-02T23:21:04.907Z,87.60
2022-08-02T23:26:08.174Z,88.80
2022-08-02T23:31:31.172Z,90.30
2022-08-02T23:36:35.898Z,91.90
2022-08-02T23:41:39.247Z,92.20
2022-08-02T23:46:43.220Z,94.20
2022-08-02T23:51:49.695Z,95.80
2022-08-02T23:56:53.202Z,97.70
